Time;durP1;ratioP1;P1;durP2;ratioP2;P2;SDS_P1;SDS_P2;PMS_P1;PMS_P2;Temp;Humidity;BMP_temperature;BMP_pressure;BME280_temperature;BME280_humidity;BME280_pressure;Samples;Min_cycle;Max_cycle;Signal;HPM_P1;HPM_P2
2022/03/29 00:02:16;;;;;;;10.30;8.83;;;10.60;67.90;;;;;;5052563;28;20201;-60
2022/03/29 00:04:41;;;;;;;10.37;7.50;;;10.40;68.10;;;;;;5056000;28;20241;-60
2022/03/29 00:07:07;;;;;;;13.90;8.13;;;10.30;68.50;;;;;;5071748;28;20191;-60
2022/03/29 00:09:32;;;;;;;11.60;8.20;;;10.30;68.80;;;;;;5053239;28;20187;-60
2022/03/29 00:11:58;;;;;;;9.53;7.70;;;10.40;69.50;;;;;;5054358;28;20214;-60
2022/03/29 00:14:24;;;;;;;9.53;8.37;;;10.30;69.90;;;;;;5059698;28;20206;-60
2022/03/29 00:16:50;;;;;;;13.63;8.37;;;10.20;70.10;;;;;;5051710;28;20195;-60
2022/03/29 00:19:15;;;;;;;10.07;8.50;;;10.30;70.60;;;;;;5051769;28;20188;-60
2022/03/29 00:21:41;;;;;;;10.00;8.30;;;10.30;70.70;;;;;;5051057;28;20438;-60
2022/03/29 00:24:07;;;;;;;10.10;7.50;;;10.20;70.90;;;;;;5054570;28;20186;-60
2022/03/29 00:26:32;;;;;;;10.40;8.10;;;10.10;71.10;;;;;;5054000;28;20188;-61
2022/03/29 00:28:58;;;;;;;9.60;8.30;;;10.10;71.40;;;;;;5051215;28;20417;-62
2022/03/29 00:31:23;;;;;;;9.07;8.13;;;10.30;72.00;;;;;;5051908;28;20338;-61
2022/03/29 00:33:50;;;;;;;10.90;8.23;;;10.00;72.30;;;;;;5056277;28;20544;-60
2022/03/29 00:36:16;;;;;;;10.30;7.85;;;10.20;72.60;;;;;;5053562;28;20226;-60
2022/03/29 00:38:43;;;;;;;8.98;8.05;;;10.00;72.60;;;;;;5055494;28;20265;-60
2022/03/29 00:41:08;;;;;;;9.25;7.75;;;10.10;73.10;;;;;;5053719;28;20179;-60
2022/03/29 00:43:35;;;;;;;10.20;7.53;;;9.90;74.40;;;;;;5058945;28;20266;-60
2022/03/29 00:46:01;;;;;;;9.18;8.25;;;10.10;73.30;;;;;;5052141;28;20943;-60
2022/03/29 00:48:27;;;;;;;13.82;8.50;;;10.00;73.20;;;;;;5063623;28;20179;-60
2022/03/29 00:50:54;;;;;;;9.07;8.05;;;10.10;73.70;;;;;;5057463;28;20645;-60
2022/03/29 00:53:22;;;;;;;13.25;7.78;;;10.00;73.80;;;;;;5053583;28;20672;-60
2022/03/29 00:55:48;;;;;;;9.27;8.25;;;10.00;74.00;;;;;;5052371;28;20285;-60
2022/03/29 00:58:15;;;;;;;10.63;7.90;;;9.90;75.20;;;;;;5062616;28;20530;-60
2022/03/29 01:00:40;;;;;;;14.60;8.85;;;10.20;74.60;;;;;;5055288;28;20228;-60
2022/03/29 01:03:06;;;;;;;11.30;7.10;;;9.70;75.90;;;;;;5057668;28;20584;-60
2022/03/29 01:05:32;;;;;;;11.67;8.07;;;9.80;77.20;;;;;;5051862;28;20195;-60
2022/03/29 01:08:00;;;;;;;9.63;7.60;;;10.00;76.20;;;;;;5051804;28;20229;-60
2022/03/29 01:10:26;;;;;;;10.23;8.07;;;9.80;77.00;;;;;;5053636;28;20216;-60
2022/03/29 01:12:56;;;;;;;10.90;8.40;;;10.20;75.90;;;;;;5055694;28;20199;-60
2022/03/29 01:15:27;;;;;;;10.70;8.20;;;9.80;76.80;;;;;;5070223;28;20209;-60
2022/03/29 01:17:54;;;;;;;9.45;7.88;;;9.90;77.50;;;;;;5053627;28;20207;-61
2022/03/29 01:20:27;;;;;;;10.05;7.78;;;9.60;77.10;;;;;;5050431;28;20180;-60
2022/03/29 01:22:54;;;;;;;10.63;8.00;;;10.00;76.80;;;;;;5050986;28;20255;-60
2022/03/29 01:25:31;;;;;;;10.30;9.30;;;9.70;77.90;;;;;;5050896;28;20226;-60
2022/03/29 01:27:57;;;;;;;12.02;8.18;;;9.90;78.20;;;;;;5057276;28;20242;-60
2022/03/29 01:30:23;;;;;;;13.02;7.28;;;9.60;78.80;;;;;;5052856;28;20277;-60
2022/03/29 01:32:50;;;;;;;15.70;8.53;;;9.90;78.70;;;;;;5051701;28;20322;-60
2022/03/29 01:35:18;;;;;;;8.90;7.40;;;9.30;78.60;;;;;;5052107;28;20218;-61
2022/03/29 01:37:43;;;;;;;11.75;8.02;;;9.90;79.20;;;;;;5054085;28;20174;-60
2022/03/29 01:40:12;;;;;;;15.30;8.40;;;9.70;78.80;;;;;;5063464;28;20197;-60
2022/03/29 01:42:42;;;;;;;14.68;9.10;;;10.00;77.70;;;;;;5053633;28;21114;-60
2022/03/29 01:45:09;;;;;;;11.57;8.82;;;9.80;78.70;;;;;;5052968;28;20207;-60
2022/03/29 01:47:34;;;;;;;10.65;7.95;;;10.10;78.20;;;;;;5060400;28;20183;-60
2022/03/29 01:50:00;;;;;;;11.20;7.67;;;9.90;79.50;;;;;;5050459;28;20222;-61
2022/03/29 01:52:26;;;;;;;10.60;7.83;;;9.90;80.80;;;;;;5041536;28;20294;-60
2022/03/29 01:54:51;;;;;;;11.83;8.30;;;9.70;80.20;;;;;;5050610;28;20290;-60
2022/03/29 01:57:17;;;;;;;11.57;7.60;;;9.90;79.70;;;;;;5050782;28;20182;-61
2022/03/29 02:02:26;;;;;;;9.68;8.57;;;9.90;78.90;;;;;;5064925;28;20307;-60
2022/03/29 02:04:52;;;;;;;9.60;7.37;;;9.80;78.50;;;;;;5056096;28;20191;-61
2022/03/29 02:07:18;;;;;;;11.43;7.87;;;9.90;78.00;;;;;;5059325;28;20194;-60
2022/03/29 02:09:44;;;;;;;9.73;8.57;;;10.00;77.80;;;;;;5061646;28;20305;-61
2022/03/29 02:12:12;;;;;;;9.00;7.47;;;10.30;77.00;;;;;;5052227;28;20441;-60
2022/03/29 02:14:38;;;;;;;10.38;7.70;;;10.10;76.40;;;;;;5058186;28;20696;-60
2022/03/29 02:17:05;;;;;;;12.07;8.30;;;10.40;76.70;;;;;;5054181;28;20274;-60
2022/03/29 02:19:30;;;;;;;10.05;8.50;;;10.10;76.70;;;;;;5054782;28;20685;-60
2022/03/29 02:21:56;;;;;;;10.47;8.30;;;10.50;76.00;;;;;;5052167;28;20212;-59
2022/03/29 02:24:22;;;;;;;11.97;8.33;;;10.50;75.00;;;;;;5064888;28;20195;-59
2022/03/29 02:26:47;;;;;;;9.73;8.80;;;10.40;74.50;;;;;;5059721;28;20668;-59
2022/03/29 02:29:13;;;;;;;10.13;9.00;;;10.40;73.70;;;;;;5054125;28;20602;-59
2022/03/29 02:31:38;;;;;;;9.57;7.80;;;10.30;73.40;;;;;;5052914;28;20566;-59
2022/03/29 02:34:04;;;;;;;11.23;8.53;;;10.10;73.20;;;;;;5049767;28;20590;-61
2022/03/29 02:36:29;;;;;;;11.00;8.27;;;10.40;73.60;;;;;;5048682;28;20553;-60
2022/03/29 02:38:55;;;;;;;10.10;7.07;;;10.40;73.70;;;;;;5048346;28;20192;-60
2022/03/29 02:41:21;;;;;;;8.93;7.77;;;10.60;73.60;;;;;;5061508;28;20187;-60
2022/03/29 02:43:46;;;;;;;9.33;8.37;;;10.50;73.80;;;;;;5043450;28;20188;-59
2022/03/29 02:46:13;;;;;;;11.33;8.53;;;10.20;73.40;;;;;;5060040;28;20214;-59
2022/03/29 02:48:39;;;;;;;9.90;7.60;;;10.90;73.80;;;;;;5053263;28;20417;-59
2022/03/29 02:51:05;;;;;;;8.57;7.63;;;10.50;73.40;;;;;;5063036;28;20188;-59
2022/03/29 02:53:30;;;;;;;9.53;8.17;;;10.60;73.40;;;;;;5062854;28;20613;-60
2022/03/29 02:55:56;;;;;;;9.50;8.07;;;10.60;72.80;;;;;;5037647;28;20677;-60
2022/03/29 02:58:22;;;;;;;13.20;8.07;;;10.40;72.10;;;;;;5058673;28;20528;-60
2022/03/29 03:00:48;;;;;;;10.48;8.32;;;10.50;72.10;;;;;;5050889;28;20184;-60
2022/03/29 03:03:14;;;;;;;9.77;8.70;;;10.70;72.20;;;;;;5059387;28;20614;-60
2022/03/29 03:05:40;;;;;;;11.33;8.70;;;10.50;71.70;;;;;;5050535;28;20317;-61
2022/03/29 03:08:05;;;;;;;11.07;9.00;;;10.70;71.70;;;;;;5051509;28;20565;-60
2022/03/29 03:10:31;;;;;;;9.63;8.03;;;10.50;71.50;;;;;;5058004;28;20192;-60
2022/03/29 03:12:57;;;;;;;13.60;9.00;;;10.50;71.40;;;;;;5053967;28;20224;-60
2022/03/29 03:15:24;;;;;;;9.13;8.23;;;10.50;71.30;;;;;;5050387;28;20466;-60
2022/03/29 03:17:51;;;;;;;11.90;8.65;;;10.70;71.90;;;;;;5049064;28;20188;-60
2022/03/29 03:20:17;;;;;;;12.90;8.18;;;10.60;71.80;;;;;;5047853;28;20656;-60
2022/03/29 03:22:43;;;;;;;14.57;8.77;;;10.40;72.30;;;;;;5049042;28;20212;-60
2022/03/29 03:25:10;;;;;;;10.73;7.82;;;10.60;72.60;;;;;;5038434;28;20199;-60
2022/03/29 03:27:35;;;;;;;12.82;8.73;;;10.30;72.80;;;;;;5054403;28;20197;-59
2022/03/29 03:30:04;;;;;;;11.00;8.60;;;10.50;72.80;;;;;;5063018;28;20278;-59
2022/03/29 03:32:29;;;;;;;11.02;8.23;;;10.10;72.80;;;;;;5060218;28;20449;-60
2022/03/29 03:34:55;;;;;;;10.30;7.90;;;10.10;73.20;;;;;;5049314;28;20215;-61
2022/03/29 03:37:20;;;;;;;12.07;8.60;;;10.20;73.70;;;;;;5063819;28;20200;-61
2022/03/29 03:39:46;;;;;;;12.87;8.80;;;10.30;74.00;;;;;;5048445;28;20722;-61
2022/03/29 03:42:12;;;;;;;12.37;8.77;;;10.10;73.60;;;;;;5066627;28;20215;-61
2022/03/29 03:44:39;;;;;;;12.67;7.90;;;10.10;74.30;;;;;;5060328;28;20669;-60
2022/03/29 03:47:07;;;;;;;13.20;8.57;;;10.20;74.70;;;;;;5055589;28;20231;-60
2022/03/29 03:49:34;;;;;;;10.25;7.88;;;10.10;74.70;;;;;;5058630;28;20620;-60
2022/03/29 03:51:59;;;;;;;10.18;8.35;;;10.10;73.90;;;;;;5053274;28;20210;-60
2022/03/29 03:54:25;;;;;;;10.17;8.30;;;10.30;73.90;;;;;;5052321;28;20208;-60
2022/03/29 03:56:50;;;;;;;9.93;8.40;;;10.10;73.80;;;;;;5051976;28;20222;-59
2022/03/29 03:59:16;;;;;;;10.70;8.60;;;10.20;74.20;;;;;;5050048;28;20701;-60
2022/03/29 04:01:42;;;;;;;11.50;8.90;;;10.10;74.00;;;;;;5059170;28;20219;-60
2022/03/29 04:04:08;;;;;;;16.15;9.48;;;9.90;74.30;;;;;;5056252;28;20188;-60
2022/03/29 04:06:33;;;;;;;15.10;9.67;;;10.00;73.00;;;;;;5061590;28;20244;-60
2022/03/29 04:08:59;;;;;;;12.10;10.13;;;10.00;73.10;;;;;;5053014;28;20238;-61
2022/03/29 04:11:26;;;;;;;12.97;9.03;;;10.10;73.10;;;;;;5052565;28;20211;-60
2022/03/29 04:13:52;;;;;;;13.52;9.30;;;9.60;73.30;;;;;;5051858;28;20183;-60
2022/03/29 04:16:17;;;;;;;13.73;9.20;;;10.20;72.90;;;;;;5052532;28;20576;-60
2022/03/29 04:18:43;;;;;;;11.40;9.30;;;9.40;73.80;;;;;;5051858;28;20185;-60
2022/03/29 04:21:09;;;;;;;11.60;9.33;;;10.00;73.70;;;;;;5050568;28;20207;-60
2022/03/29 04:23:35;;;;;;;14.27;10.20;;;10.10;74.20;;;;;;5059317;28;20176;-60
2022/03/29 04:26:02;;;;;;;11.93;10.40;;;9.80;75.30;;;;;;5067421;28;20203;-60
2022/03/29 04:28:27;;;;;;;12.70;9.88;;;10.20;74.80;;;;;;5061612;28;20200;-60
2022/03/29 04:30:55;;;;;;;11.13;9.40;;;10.00;74.50;;;;;;5052745;28;20187;-60
2022/03/29 04:33:21;;;;;;;13.13;9.70;;;9.80;75.60;;;;;;5056086;28;20726;-60
2022/03/29 04:35:47;;;;;;;13.02;9.00;;;9.80;76.80;;;;;;5053914;28;20204;-60
2022/03/29 04:38:12;;;;;;;10.33;8.23;;;9.80;76.80;;;;;;5055194;28;20187;-60
2022/03/29 04:40:38;;;;;;;10.37;8.73;;;9.90;76.90;;;;;;5049983;28;20193;-60
2022/03/29 04:43:04;;;;;;;11.20;8.23;;;9.80;77.10;;;;;;5060113;28;20288;-59
2022/03/29 04:45:30;;;;;;;12.63;8.83;;;9.80;76.90;;;;;;5055300;28;20840;-60
2022/03/29 04:47:55;;;;;;;11.10;8.77;;;10.00;76.20;;;;;;5061674;28;20979;-60
2022/03/29 04:50:21;;;;;;;11.60;9.20;;;9.80;77.70;;;;;;5056716;28;20796;-60
2022/03/29 04:52:47;;;;;;;12.03;10.17;;;9.70;78.60;;;;;;5050094;28;20207;-60
2022/03/29 04:55:15;;;;;;;10.00;8.95;;;9.60;79.90;;;;;;5043554;28;20219;-61
2022/03/29 04:57:41;;;;;;;15.80;10.48;;;9.50;80.30;;;;;;5056605;28;20281;-59
2022/03/29 05:00:12;;;;;;;9.90;8.60;;;9.50;80.60;;;;;;5050579;28;20603;-60
2022/03/29 05:02:39;;;;;;;11.73;8.88;;;9.40;81.00;;;;;;5060526;28;20668;-60
2022/03/29 05:05:05;;;;;;;13.50;9.07;;;9.40;81.50;;;;;;5055516;28;20195;-61
2022/03/29 05:07:33;;;;;;;14.30;8.70;;;9.40;82.10;;;;;;5059484;28;20468;-61
2022/03/29 05:09:59;;;;;;;12.88;9.68;;;9.20;82.20;;;;;;5052048;28;20181;-60
2022/03/29 05:12:25;;;;;;;12.53;9.30;;;9.40;82.40;;;;;;5055882;28;20208;-60
2022/03/29 05:14:51;;;;;;;10.48;8.65;;;9.30;83.00;;;;;;5050856;28;20218;-60
2022/03/29 05:17:17;;;;;;;13.70;8.97;;;9.10;82.70;;;;;;5059810;28;20555;-60
2022/03/29 05:19:42;;;;;;;13.17;10.13;;;9.30;82.70;;;;;;5053892;28;21030;-61
2022/03/29 05:22:08;;;;;;;14.90;9.60;;;9.10;82.10;;;;;;5051176;28;20249;-60
2022/03/29 05:24:34;;;;;;;11.47;7.97;;;9.20;82.90;;;;;;5041883;28;20276;-60
2022/03/29 05:26:59;;;;;;;18.43;9.47;;;9.20;82.40;;;;;;5050486;28;20737;-61
2022/03/29 05:29:25;;;;;;;13.30;9.90;;;9.30;82.10;;;;;;5055878;28;20452;-61
2022/03/29 05:31:51;;;;;;;13.47;10.40;;;9.20;82.40;;;;;;5051217;28;20236;-61
2022/03/29 05:34:17;;;;;;;12.77;8.82;;;9.20;82.30;;;;;;5056155;28;20241;-61
2022/03/29 05:36:45;;;;;;;16.83;9.90;;;9.20;82.20;;;;;;5056803;28;20584;-61
2022/03/29 05:39:13;;;;;;;12.05;9.18;;;9.30;82.10;;;;;;5056197;28;20183;-65
2022/03/29 05:41:39;;;;;;;13.95;9.63;;;9.30;81.60;;;;;;5053269;28;20202;-65
2022/03/29 05:44:05;;;;;;;14.02;10.70;;;9.30;81.70;;;;;;5060780;28;20178;-63
2022/03/29 05:49:15;;;;;;;17.13;10.48;;;8.70;81.70;;;;;;5052033;28;20206;-66
2022/03/29 05:51:41;;;;;;;13.85;9.48;;;9.40;81.70;;;;;;5055022;28;20237;-63
2022/03/29 05:54:07;;;;;;;15.48;10.80;;;9.40;81.00;;;;;;5064076;28;20191;-63
2022/03/29 05:56:33;;;;;;;14.67;10.30;;;9.60;80.40;;;;;;5058016;28;20626;-61
2022/03/29 05:58:58;;;;;;;17.40;10.53;;;9.40;80.20;;;;;;5051293;28;20196;-62
2022/03/29 06:01:24;;;;;;;13.90;8.50;;;9.80;80.20;;;;;;5050829;28;20683;-66
2022/03/29 06:03:49;;;;;;;13.30;10.30;;;10.00;78.90;;;;;;5055758;28;20596;-63
2022/03/29 06:06:15;;;;;;;14.20;9.50;;;10.00;77.30;;;;;;5050823;28;20187;-64
2022/03/29 06:08:42;;;;;;;13.63;9.43;;;9.90;78.60;;;;;;5049755;28;20631;-65
2022/03/29 06:11:07;;;;;;;11.05;9.50;;;9.90;78.30;;;;;;5057181;28;20188;-64
2022/03/29 06:13:34;;;;;;;14.13;10.63;;;10.30;77.40;;;;;;5059385;28;20590;-63
2022/03/29 06:16:00;;;;;;;15.68;10.60;;;10.10;76.90;;;;;;5059748;28;21122;-64
2022/03/29 06:18:25;;;;;;;13.47;9.83;;;10.20;77.90;;;;;;5057679;28;20203;-64
2022/03/29 06:20:51;;;;;;;14.47;9.73;;;10.30;76.20;;;;;;5053231;28;20481;-66
2022/03/29 06:23:17;;;;;;;12.97;9.50;;;10.60;75.80;;;;;;5049266;28;20541;-62
2022/03/29 06:25:43;;;;;;;12.93;10.23;;;10.60;75.00;;;;;;5048884;28;20461;-62
2022/03/29 06:28:10;;;;;;;12.03;9.83;;;10.80;75.00;;;;;;5051632;28;20449;-68
2022/03/29 06:30:37;;;;;;;15.50;10.20;;;10.80;75.50;;;;;;5050125;28;20940;-70
2022/03/29 06:33:02;;;;;;;17.52;10.80;;;10.60;75.00;;;;;;5050402;28;20220;-71
2022/03/29 06:35:30;;;;;;;16.17;10.80;;;10.80;75.10;;;;;;5048978;28;20197;-71
2022/03/29 06:37:58;;;;;;;11.75;9.23;;;10.80;74.80;;;;;;5049490;28;20271;-69
2022/03/29 06:40:25;;;;;;;15.95;9.98;;;11.00;74.70;;;;;;5055025;28;20179;-70
2022/03/29 06:42:52;;;;;;;15.95;10.05;;;10.80;74.50;;;;;;5047707;28;20215;-69
2022/03/29 06:45:18;;;;;;;13.07;10.55;;;10.90;74.60;;;;;;5048820;28;20276;-70
2022/03/29 06:47:44;;;;;;;14.55;11.70;;;11.20;74.10;;;;;;5057212;28;20324;-70
2022/03/29 06:50:10;;;;;;;11.82;9.57;;;11.30;73.70;;;;;;5055272;28;20180;-67
2022/03/29 06:52:37;;;;;;;15.82;10.80;;;11.30;73.60;;;;;;5049285;28;20216;-68
2022/03/29 06:55:04;;;;;;;15.55;10.90;;;11.50;73.30;;;;;;5048414;28;20201;-67
2022/03/29 06:57:30;;;;;;;15.85;9.80;;;11.60;72.80;;;;;;5048705;28;20182;-67
2022/03/29 06:59:56;;;;;;;14.70;11.47;;;11.70;72.50;;;;;;5049770;28;20489;-67
2022/03/29 07:02:21;;;;;;;14.13;10.27;;;12.00;72.60;;;;;;5055148;28;20205;-65
2022/03/29 07:04:47;;;;;;;15.40;10.50;;;12.10;71.60;;;;;;5053633;28;20200;-70
2022/03/29 07:07:12;;;;;;;17.00;12.43;;;12.50;71.20;;;;;;5052161;28;20189;-70
2022/03/29 07:12:23;;;;;;;16.52;11.85;;;12.30;71.10;;;;;;5049858;28;20235;-65
2022/03/29 07:14:49;;;;;;;19.83;12.52;;;12.20;71.20;;;;;;5035878;28;20343;-62
2022/03/29 07:17:16;;;;;;;15.93;10.70;;;12.60;70.40;;;;;;5053071;28;20276;-65
2022/03/29 07:19:41;;;;;;;17.70;11.75;;;12.40;69.80;;;;;;5055679;28;20207;-66
2022/03/29 07:22:07;;;;;;;21.43;11.27;;;12.70;69.20;;;;;;5053276;28;20213;-67
2022/03/29 07:24:33;;;;;;;14.50;11.43;;;13.10;68.60;;;;;;5051675;28;20260;-65
2022/03/29 07:27:00;;;;;;;12.82;11.40;;;13.60;67.30;;;;;;5055590;28;20254;-66
2022/03/29 07:29:26;;;;;;;19.00;11.75;;;13.80;65.60;;;;;;5061624;28;20186;-66
2022/03/29 07:31:52;;;;;;;18.75;12.52;;;14.40;64.80;;;;;;5060082;28;20303;-67
2022/03/29 07:34:19;;;;;;;15.65;11.68;;;14.50;63.60;;;;;;5051558;28;20247;-69
2022/03/29 07:36:44;;;;;;;17.30;11.88;;;13.90;63.10;;;;;;5057342;28;20186;-66
2022/03/29 07:39:10;;;;;;;14.17;12.03;;;13.70;64.30;;;;;;5060004;28;20177;-67
2022/03/29 07:41:35;;;;;;;16.87;11.63;;;13.90;64.90;;;;;;5058095;28;20194;-66
2022/03/29 07:44:02;;;;;;;18.27;12.43;;;14.00;64.10;;;;;;5057212;28;20186;-63
2022/03/29 07:46:28;;;;;;;23.92;12.98;;;14.20;63.20;;;;;;5054043;28;20193;-66
2022/03/29 07:48:54;;;;;;;16.15;11.35;;;14.40;61.80;;;;;;5064240;28;20192;-67
2022/03/29 07:51:19;;;;;;;16.87;13.23;;;14.30;61.50;;;;;;5049691;28;20196;-61
2022/03/29 07:53:47;;;;;;;17.33;12.23;;;14.40;61.80;;;;;;5051518;28;20196;-62
2022/03/29 07:56:12;;;;;;;18.10;12.10;;;14.60;61.20;;;;;;5051946;28;20600;-63
2022/03/29 07:58:38;;;;;;;21.40;12.27;;;14.60;61.40;;;;;;5051303;28;20264;-63
2022/03/29 08:01:04;;;;;;;21.20;12.33;;;15.20;61.10;;;;;;5052823;28;20354;-63
2022/03/29 08:03:33;;;;;;;17.83;12.45;;;16.10;59.70;;;;;;5054347;28;20613;-63
2022/03/29 08:06:01;;;;;;;25.65;13.82;;;16.10;58.50;;;;;;5060233;28;20204;-68
2022/03/29 08:08:27;;;;;;;14.52;11.85;;;16.60;57.10;;;;;;5055321;28;20193;-67
2022/03/29 08:10:52;;;;;;;18.77;14.23;;;17.20;56.10;;;;;;5040311;28;20189;-71
2022/03/29 08:13:18;;;;;;;19.03;13.40;;;17.30;55.20;;;;;;5049373;28;20254;-68
2022/03/29 08:15:46;;;;;;;13.97;12.40;;;17.30;55.40;;;;;;5054842;28;20202;-65
2022/03/29 08:18:12;;;;;;;19.60;12.43;;;17.90;53.90;;;;;;5039069;28;20971;-65
2022/03/29 08:20:39;;;;;;;19.73;13.60;;;18.80;52.50;;;;;;5052655;28;20189;-69
2022/03/29 08:23:06;;;;;;;14.13;12.73;;;19.20;51.30;;;;;;5036851;28;21790;-68
2022/03/29 08:25:33;;;;;;;17.75;14.00;;;19.40;50.40;;;;;;5057267;28;20193;-67
2022/03/29 08:28:00;;;;;;;16.20;13.00;;;19.60;49.70;;;;;;5055112;28;20200;-69
2022/03/29 08:30:27;;;;;;;19.85;14.57;;;19.70;49.40;;;;;;5054474;28;20723;-68
2022/03/29 08:32:54;;;;;;;19.63;14.65;;;20.00;49.10;;;;;;5059840;28;20216;-69
2022/03/29 08:35:19;;;;;;;19.08;13.95;;;19.80;49.50;;;;;;5051426;28;20244;-65
2022/03/29 08:37:46;;;;;;;18.20;14.60;;;19.60;49.10;;;;;;5053603;28;20216;-64
2022/03/29 08:40:16;;;;;;;18.42;13.88;;;19.20;48.60;;;;;;5063724;28;20320;-63
2022/03/29 08:42:44;;;;;;;18.98;14.07;;;19.50;49.00;;;;;;5063975;28;20205;-68
2022/03/29 08:45:14;;;;;;;18.02;14.30;;;19.30;49.10;;;;;;5052686;28;20221;-67
2022/03/29 08:47:41;;;;;;;23.42;15.93;;;18.70;49.60;;;;;;5055391;28;20666;-69
2022/03/29 08:50:09;;;;;;;21.30;14.23;;;18.30;50.00;;;;;;5054190;28;20180;-69
2022/03/29 08:52:35;;;;;;;22.50;15.50;;;17.80;50.90;;;;;;5056435;28;20217;-65
2022/03/29 08:55:03;;;;;;;31.05;17.17;;;17.40;51.70;;;;;;5057869;28;20621;-65
2022/03/29 08:57:30;;;;;;;26.15;15.00;;;17.00;52.00;;;;;;5054569;28;20216;-69
2022/03/29 08:59:56;;;;;;;18.55;14.35;;;17.00;52.50;;;;;;5062278;28;20188;-65
2022/03/29 09:02:21;;;;;;;22.52;13.75;;;17.00;52.50;;;;;;5050908;28;20352;-67
2022/03/29 09:05:14;;;;;;;22.20;14.17;;;17.10;52.90;;;;;;5048163;28;20192;-68
2022/03/29 09:07:56;;;;;;;33.95;16.73;;;17.40;52.90;;;;;;5052761;28;20197;-67
2022/03/29 09:10:39;;;;;;;22.00;14.25;;;17.80;52.30;;;;;;5057810;28;20256;-66
2022/03/29 09:13:27;;;;;;;18.10;13.40;;;18.10;51.50;;;;;;5052841;28;20335;-68
2022/03/29 09:15:54;;;;;;;24.58;15.02;;;18.60;50.30;;;;;;5056696;28;20678;-67
2022/03/29 09:18:21;;;;;;;16.05;13.95;;;19.10;50.10;;;;;;5057223;28;20637;-66
2022/03/29 09:20:47;;;;;;;15.73;13.98;;;19.30;49.30;;;;;;5058481;28;20188;-67
2022/03/29 09:23:17;;;;;;;23.92;14.60;;;19.10;49.50;;;;;;5056008;28;20209;-64
2022/03/29 09:25:48;;;;;;;18.80;14.10;;;19.10;49.70;;;;;;5052114;28;20302;-70
2022/03/29 09:28:23;;;;;;;18.52;13.90;;;19.20;49.40;;;;;;5059821;28;20189;-67
2022/03/29 09:30:53;;;;;;;17.65;14.35;;;19.80;48.50;;;;;;5053447;28;20196;-68
2022/03/29 09:33:39;;;;;;;19.02;13.98;;;20.30;47.90;;;;;;5051909;28;20212;-65
2022/03/29 09:36:07;;;;;;;18.70;13.20;;;20.80;46.70;;;;;;5049070;28;20197;-65
2022/03/29 09:38:34;;;;;;;16.17;12.30;;;21.00;45.70;;;;;;5049294;28;20185;-63
2022/03/29 09:41:01;;;;;;;17.93;13.10;;;21.40;45.20;;;;;;5056969;28;20173;-65
2022/03/29 09:43:29;;;;;;;19.00;13.77;;;21.50;44.50;;;;;;5050896;28;21070;-65
2022/03/29 09:45:59;;;;;;;16.70;12.80;;;21.30;44.50;;;;;;5052507;28;20448;-63
2022/03/29 09:48:39;;;;;;;15.53;12.67;;;21.70;44.50;;;;;;5049037;28;21008;-64
2022/03/29 09:51:08;;;;;;;15.17;13.10;;;22.30;43.10;;;;;;5054407;28;20449;-66
2022/03/29 09:53:45;;;;;;;17.47;12.77;;;22.80;42.30;;;;;;5049147;28;20439;-68
2022/03/29 09:56:13;;;;;;;16.87;12.80;;;22.70;42.00;;;;;;5049124;28;20479;-63
2022/03/29 09:58:40;;;;;;;15.60;12.20;;;22.70;41.70;;;;;;5038349;28;20504;-64
2022/03/29 10:01:20;;;;;;;17.03;12.47;;;22.40;41.90;;;;;;5056142;28;20466;-63
2022/03/29 10:03:47;;;;;;;18.97;13.07;;;22.30;41.60;;;;;;5059677;28;20442;-63
2022/03/29 10:06:12;;;;;;;20.00;12.40;;;22.30;41.60;;;;;;5052737;28;20801;-63
2022/03/29 10:11:29;;;;;;;17.23;12.47;;;22.30;41.60;;;;;;5049866;28;20213;-62
2022/03/29 10:13:54;;;;;;;17.03;12.97;;;22.80;41.60;;;;;;5059234;28;20450;-63
2022/03/29 10:16:20;;;;;;;19.77;13.93;;;22.80;41.10;;;;;;5050131;28;20292;-64
2022/03/29 10:18:46;;;;;;;16.90;13.20;;;21.90;41.70;;;;;;5050127;28;20185;-64
2022/03/29 10:21:14;;;;;;;20.23;14.73;;;21.90;42.20;;;;;;5047659;28;20554;-64
2022/03/29 10:23:43;;;;;;;16.50;12.77;;;21.70;42.30;;;;;;5054304;28;20485;-62
2022/03/29 10:26:10;;;;;;;18.10;13.27;;;22.00;41.60;;;;;;5056448;28;20762;-62
2022/03/29 10:28:36;;;;;;;16.80;12.50;;;22.10;41.50;;;;;;5052692;28;20828;-62
2022/03/29 10:31:23;;;;;;;16.53;11.57;;;22.20;41.10;;;;;;5051222;28;20678;-63
2022/03/29 10:34:12;;;;;;;15.53;12.80;;;22.10;41.00;;;;;;5051448;28;20443;-63
2022/03/29 10:37:16;;;;;;;15.43;11.80;;;22.00;41.10;;;;;;5048916;28;20487;-62
2022/03/29 10:39:49;;;;;;;15.70;12.17;;;22.00;41.00;;;;;;5048085;28;20432;-63
2022/03/29 10:42:24;;;;;;;13.53;11.73;;;21.90;40.90;;;;;;5051798;28;20589;-63
2022/03/29 10:45:09;;;;;;;13.83;12.33;;;22.10;40.80;;;;;;5050403;28;20516;-62
2022/03/29 10:47:35;;;;;;;14.57;12.02;;;21.80;41.10;;;;;;5048591;28;20814;-62
2022/03/29 10:50:02;;;;;;;12.67;11.20;;;21.30;41.70;;;;;;5054805;28;20246;-63
2022/03/29 10:52:29;;;;;;;14.27;11.88;;;21.20;44.10;;;;;;5051309;28;20972;-62
2022/03/29 10:55:14;;;;;;;14.03;12.60;;;21.30;42.20;;;;;;5052689;28;20576;-64
2022/03/29 10:57:40;;;;;;;17.10;12.40;;;21.20;42.20;;;;;;5051727;28;20968;-64
2022/03/29 11:00:11;;;;;;;15.50;12.60;;;21.40;42.20;;;;;;5051849;28;20224;-61
2022/03/29 11:02:38;;;;;;;15.80;10.85;;;21.30;42.20;;;;;;5053562;28;20220;-62
2022/03/29 11:05:09;;;;;;;14.73;11.77;;;21.00;42.50;;;;;;5054369;28;20189;-62
2022/03/29 11:07:48;;;;;;;14.80;11.90;;;21.10;42.60;;;;;;5066532;28;20478;-62
2022/03/29 11:10:13;;;;;;;15.35;12.13;;;21.20;42.60;;;;;;5052957;28;20439;-64
2022/03/29 11:12:43;;;;;;;14.10;11.97;;;20.60;42.20;;;;;;5055344;28;20201;-64
2022/03/29 11:15:24;;;;;;;14.17;12.10;;;21.30;42.20;;;;;;5047925;28;20201;-63
2022/03/29 11:17:50;;;;;;;15.00;12.37;;;21.70;42.10;;;;;;5056966;28;20431;-63
2022/03/29 11:20:38;;;;;;;17.43;13.73;;;21.70;41.40;;;;;;5060465;28;20424;-64
2022/03/29 11:23:09;;;;;;;19.83;14.35;;;21.60;41.40;;;;;;5062252;28;21317;-64
2022/03/29 11:25:40;;;;;;;15.87;13.60;;;21.20;41.80;;;;;;5042002;28;20198;-67
2022/03/29 11:28:16;;;;;;;15.45;12.38;;;21.30;42.20;;;;;;5056421;28;20442;-65
2022/03/29 11:30:43;;;;;;;17.43;12.50;;;21.60;41.60;;;;;;5056683;28;20193;-65
2022/03/29 11:33:10;;;;;;;16.73;14.03;;;21.60;41.90;;;;;;5052602;28;20468;-66
2022/03/29 11:35:37;;;;;;;15.57;13.13;;;21.60;42.00;;;;;;5053548;28;21050;-66
2022/03/29 11:38:16;;;;;;;16.33;13.50;;;21.50;41.80;;;;;;5053635;28;22005;-64
2022/03/29 11:40:42;;;;;;;19.70;14.70;;;21.40;42.20;;;;;;5058736;28;20529;-65
2022/03/29 11:43:12;;;;;;;17.17;14.63;;;21.00;42.60;;;;;;5059468;28;20451;-64
2022/03/29 11:45:40;;;;;;;18.20;14.10;;;21.50;42.00;;;;;;5036956;28;20436;-64
2022/03/29 11:48:12;;;;;;;18.60;14.93;;;21.40;42.40;;;;;;5054326;28;20508;-65
2022/03/29 11:50:48;;;;;;;16.17;13.43;;;22.00;42.20;;;;;;5054236;28;20419;-63
2022/03/29 11:53:18;;;;;;;17.93;14.73;;;22.40;40.90;;;;;;5058653;28;21288;-64
2022/03/29 11:56:02;;;;;;;17.50;13.10;;;22.20;40.70;;;;;;5038642;28;20509;-64
2022/03/29 11:58:29;;;;;;;18.07;13.30;;;21.80;41.10;;;;;;5062486;28;20467;-65
2022/03/29 12:01:03;;;;;;;13.90;12.50;;;21.60;41.30;;;;;;5056925;28;20424;-65
2022/03/29 12:03:34;;;;;;;16.40;13.37;;;21.30;42.00;;;;;;5054603;28;20466;-64
2022/03/29 12:06:08;;;;;;;23.67;14.40;;;21.10;41.80;;;;;;5051918;28;20838;-62
2022/03/29 12:08:56;;;;;;;17.05;13.38;;;21.20;42.50;;;;;;5050670;28;20475;-68
2022/03/29 12:11:28;;;;;;;15.35;12.68;;;21.30;42.10;;;;;;5063063;28;20195;-66
2022/03/29 12:14:13;;;;;;;14.33;12.83;;;21.40;42.10;;;;;;5054096;28;20189;-64
2022/03/29 12:16:41;;;;;;;17.80;12.90;;;21.50;42.20;;;;;;5060602;28;20472;-66
2022/03/29 12:19:08;;;;;;;19.20;13.50;;;21.70;41.80;;;;;;5053411;28;20335;-64
2022/03/29 12:21:34;;;;;;;16.97;13.53;;;22.00;41.50;;;;;;5063056;28;20869;-66
2022/03/29 12:24:05;;;;;;;18.20;14.73;;;21.90;41.20;;;;;;5061252;28;20511;-66
2022/03/29 12:26:32;;;;;;;15.40;13.80;;;22.00;41.40;;;;;;5055323;28;20194;-66
2022/03/29 12:28:58;;;;;;;18.48;14.45;;;21.70;41.50;;;;;;5055619;28;20509;-67
2022/03/29 12:31:27;;;;;;;20.20;14.40;;;21.60;41.90;;;;;;5050941;28;20244;-65
2022/03/29 12:33:54;;;;;;;17.17;15.38;;;21.50;41.90;;;;;;5056854;28;20525;-65
2022/03/29 12:36:20;;;;;;;17.58;14.25;;;21.30;42.10;;;;;;5053851;28;20222;-64
2022/03/29 12:38:55;;;;;;;16.17;13.77;;;21.40;42.50;;;;;;5051385;28;20186;-69
2022/03/29 12:41:34;;;;;;;19.38;15.00;;;21.30;42.20;;;;;;5060337;28;20442;-68
2022/03/29 12:44:00;;;;;;;18.30;14.47;;;21.30;42.30;;;;;;5051640;28;20192;-71
2022/03/29 12:46:27;;;;;;;16.55;14.00;;;21.20;42.50;;;;;;5060590;28;20436;-70
2022/03/29 12:48:55;;;;;;;16.03;13.27;;;21.40;42.20;;;;;;5048814;28;20595;-70
2022/03/29 12:51:38;;;;;;;15.10;13.50;;;21.30;42.00;;;;;;5051096;28;20436;-67